RYR4596 GCRR-LEAL
Flight info
| Callsign | RYR4596 |
|---|---|
| Flight time | N/A |
| Altitude | 34000 |
| Route | KORAL UG5 SONSO DCT NIRAL/N0445F360 UN871 OSDAM UM985 BARPA DCT XAVIR DCT PIMOS M445 ETURA T252 XEBAR M985 ASTRO |
| Aircraft | B738/M-SDE2E3FGHIRWXY/LB1 |
Departure
| Time | 2026-05-07 14:23 |
|---|---|
| Airport | César Manrique-Lanzarote Airport (GCRR) |
Arrival
| Time | N/A |
|---|---|
| Airport | Alicante-Elche Miguel Hernández Airport (LEAL) |
| Time | Latitude | Longitude | Altitude | Speed | Heading |
|---|---|---|---|---|---|
| 2026-05-07 14:00 | 28.95052 | -13.60721 | 37 ft | 0 kts | 297° |
| 2026-05-07 14:14 | 28.95044 | -13.60704 | 37 ft | 4 kts | 297° |
| 2026-05-07 14:15 | 28.95032 | -13.60677 | 34 ft | 4 kts | 303° |
| 2026-05-07 14:15 | 28.95014 | -13.60656 | 35 ft | 4 kts | 332° |
| 2026-05-07 14:15 | 28.94991 | -13.60650 | 34 ft | 3 kts | 25° |
| 2026-05-07 14:15 | 28.94988 | -13.60652 | 34 ft | 1 kts | 30° |
| 2026-05-07 14:17 | 28.94989 | -13.60651 | 34 ft | 1 kts | 31° |
| 2026-05-07 14:17 | 28.94985 | -13.60641 | 34 ft | 2 kts | 154° |
| 2026-05-07 14:18 | 28.94970 | -13.60654 | 34 ft | 4 kts | 220° |
| 2026-05-07 14:18 | 28.94930 | -13.60681 | 36 ft | 11 kts | 208° |
| 2026-05-07 14:18 | 28.94854 | -13.60727 | 34 ft | 8 kts | 204° |
| 2026-05-07 14:18 | 28.94800 | -13.60703 | 33 ft | 9 kts | 102° |
| 2026-05-07 14:19 | 28.94846 | -13.60642 | 35 ft | 12 kts | 14° |
| 2026-05-07 14:19 | 28.94863 | -13.60581 | 33 ft | 8 kts | 130° |
| 2026-05-07 14:19 | 28.94788 | -13.60591 | 35 ft | 16 kts | 205° |
| 2026-05-07 14:19 | 28.94664 | -13.60662 | 33 ft | 24 kts | 206° |
| 2026-05-07 14:20 | 28.94500 | -13.60757 | 30 ft | 22 kts | 206° |
| 2026-05-07 14:20 | 28.94358 | -13.60838 | 29 ft | 26 kts | 206° |
| 2026-05-07 14:20 | 28.94188 | -13.60937 | 30 ft | 27 kts | 208° |
| 2026-05-07 14:20 | 28.94015 | -13.61039 | 28 ft | 27 kts | 207° |
| 2026-05-07 14:21 | 28.93849 | -13.61132 | 21 ft | 20 kts | 206° |
| 2026-05-07 14:21 | 28.93720 | -13.61208 | 19 ft | 20 kts | 207° |
| 2026-05-07 14:21 | 28.93646 | -13.61193 | 18 ft | 10 kts | 124° |
| 2026-05-07 14:21 | 28.93608 | -13.61109 | 20 ft | 12 kts | 116° |
| 2026-05-07 14:22 | 28.93606 | -13.61070 | 19 ft | 4 kts | 62° |
| 2026-05-07 14:22 | 28.93625 | -13.61054 | 20 ft | 1 kts | 26° |
| 2026-05-07 14:22 | 28.93653 | -13.61038 | 20 ft | 21 kts | 27° |
| 2026-05-07 14:22 | 28.94033 | -13.60819 | 29 ft | 99 kts | 27° |
| 2026-05-07 14:23 | 28.94860 | -13.60343 | 40 ft | 165 kts | 25° |
| 2026-05-07 14:23 | 28.95970 | -13.59713 | 543 ft | 182 kts | 32° |
| 2026-05-07 14:23 | 28.96965 | -13.58910 | 1616 ft | 172 kts | 37° |
| 2026-05-07 14:23 | 28.97926 | -13.58013 | 2217 ft | 189 kts | 36° |
| 2026-05-07 14:24 | 28.99033 | -13.57046 | 2530 ft | 208 kts | 34° |
| 2026-05-07 14:24 | 29.00253 | -13.56007 | 2763 ft | 231 kts | 34° |
| 2026-05-07 14:24 | 29.01475 | -13.54665 | 3160 ft | 253 kts | 48° |
| 2026-05-07 14:24 | 29.02578 | -13.53053 | 3949 ft | 260 kts | 51° |
| 2026-05-07 14:25 | 29.03714 | -13.51405 | 4642 ft | 269 kts | 49° |
| 2026-05-07 14:25 | 29.04895 | -13.49717 | 5344 ft | 276 kts | 49° |
| 2026-05-07 14:25 | 29.06116 | -13.47989 | 6057 ft | 283 kts | 48° |
| 2026-05-07 14:25 | 29.07373 | -13.46220 | 6733 ft | 289 kts | 48° |
| 2026-05-07 14:26 | 29.08649 | -13.44427 | 7472 ft | 293 kts | 49° |
| 2026-05-07 14:26 | 29.10081 | -13.42769 | 8133 ft | 295 kts | 28° |
| 2026-05-07 14:26 | 29.11917 | -13.41736 | 8857 ft | 296 kts | 21° |
| 2026-05-07 14:26 | 29.13813 | -13.40754 | 9551 ft | 302 kts | 22° |
| 2026-05-07 14:27 | 29.15746 | -13.39745 | 10225 ft | 308 kts | 22° |
| 2026-05-07 14:27 | 29.17754 | -13.38689 | 10473 ft | 330 kts | 22° |
| 2026-05-07 14:27 | 29.19903 | -13.37547 | 10695 ft | 350 kts | 22° |
| 2026-05-07 14:27 | 29.22143 | -13.36347 | 11197 ft | 360 kts | 22° |
| 2026-05-07 14:28 | 29.24424 | -13.35121 | 11802 ft | 365 kts | 22° |
| 2026-05-07 14:28 | 29.26696 | -13.33794 | 11971 ft | 370 kts | 32° |
| 2026-05-07 14:28 | 29.28512 | -13.31717 | 12026 ft | 371 kts | 53° |
| 2026-05-07 14:28 | 29.29999 | -13.29273 | 12127 ft | 377 kts | 55° |
| 2026-05-07 14:29 | 29.31474 | -13.26766 | 12734 ft | 381 kts | 55° |
| 2026-05-07 14:29 | 29.32965 | -13.24257 | 13464 ft | 382 kts | 55° |
| 2026-05-07 14:29 | 29.34489 | -13.21735 | 14042 ft | 387 kts | 54° |
| 2026-05-07 14:29 | 29.36042 | -13.19186 | 14550 ft | 393 kts | 54° |
| 2026-05-07 14:30 | 29.37619 | -13.16601 | 15081 ft | 398 kts | 54° |
| 2026-05-07 14:30 | 29.39210 | -13.13991 | 15613 ft | 402 kts | 54° |
| 2026-05-07 14:30 | 29.40823 | -13.11340 | 16135 ft | 407 kts | 54° |
| 2026-05-07 14:30 | 29.42451 | -13.08662 | 16644 ft | 412 kts | 54° |
| 2026-05-07 14:31 | 29.44100 | -13.05948 | 17148 ft | 417 kts | 54° |
| 2026-05-07 14:31 | 29.45765 | -13.03207 | 17670 ft | 421 kts | 54° |
| 2026-05-07 14:31 | 29.47451 | -13.00427 | 18193 ft | 427 kts | 54° |
| 2026-05-07 14:31 | 29.49153 | -12.97617 | 18654 ft | 431 kts | 54° |
| 2026-05-07 14:32 | 29.50867 | -12.94782 | 19147 ft | 433 kts | 54° |
| 2026-05-07 14:32 | 29.52586 | -12.91933 | 19662 ft | 435 kts | 54° |
| 2026-05-07 14:32 | 29.54318 | -12.89063 | 20147 ft | 439 kts | 54° |
| 2026-05-07 14:32 | 29.56061 | -12.86172 | 20632 ft | 442 kts | 54° |
| 2026-05-07 14:33 | 29.57817 | -12.83257 | 21108 ft | 445 kts | 54° |
| 2026-05-07 14:33 | 29.59583 | -12.80324 | 21586 ft | 448 kts | 54° |
| 2026-05-07 14:33 | 29.61361 | -12.77368 | 22043 ft | 451 kts | 54° |
| 2026-05-07 14:33 | 29.63128 | -12.74431 | 22486 ft | 454 kts | 54° |
| 2026-05-07 14:34 | 29.64927 | -12.71436 | 22943 ft | 457 kts | 54° |
| 2026-05-07 14:34 | 29.66737 | -12.68421 | 23386 ft | 460 kts | 54° |
| 2026-05-07 14:34 | 29.68558 | -12.65385 | 23798 ft | 462 kts | 54° |
| 2026-05-07 14:34 | 29.70388 | -12.62332 | 24177 ft | 464 kts | 54° |
| 2026-05-07 14:35 | 29.72224 | -12.59267 | 24559 ft | 466 kts | 54° |
| 2026-05-07 14:35 | 29.74068 | -12.56185 | 24937 ft | 468 kts | 54° |
| 2026-05-07 14:35 | 29.75910 | -12.53086 | 25316 ft | 470 kts | 54° |
| 2026-05-07 14:35 | 29.77758 | -12.49967 | 25684 ft | 472 kts | 54° |
| 2026-05-07 14:36 | 29.79609 | -12.46839 | 26041 ft | 475 kts | 54° |
| 2026-05-07 14:36 | 29.80868 | -12.44710 | 26308 ft | 476 kts | 54° |
| 2026-05-07 14:36 | 29.82739 | -12.41546 | 26588 ft | 480 kts | 54° |
| 2026-05-07 14:36 | 29.84623 | -12.38356 | 26937 ft | 482 kts | 54° |
| 2026-05-07 14:37 | 29.86507 | -12.35167 | 27356 ft | 482 kts | 54° |
| 2026-05-07 14:37 | 29.90290 | -12.28755 | 27992 ft | 486 kts | 54° |
| 2026-05-07 14:37 | 29.92166 | -12.25571 | 28293 ft | 489 kts | 54° |
| 2026-05-07 14:38 | 29.94078 | -12.22324 | 28611 ft | 491 kts | 54° |
| 2026-05-07 14:38 | 29.95998 | -12.19058 | 28936 ft | 492 kts | 54° |
| 2026-05-07 14:38 | 29.97924 | -12.15782 | 29244 ft | 494 kts | 54° |
| 2026-05-07 14:38 | 29.99856 | -12.12494 | 29548 ft | 496 kts | 54° |
| 2026-05-07 14:39 | 30.01920 | -12.09303 | 29822 ft | 496 kts | 46° |
| 2026-05-07 14:39 | 30.04327 | -12.06456 | 30120 ft | 495 kts | 41° |
| 2026-05-07 14:39 | 30.06807 | -12.03714 | 30487 ft | 493 kts | 40° |
| 2026-05-07 14:39 | 30.09284 | -12.01013 | 31023 ft | 486 kts | 40° |
| 2026-05-07 14:40 | 30.11730 | -11.98343 | 31468 ft | 483 kts | 40° |
| 2026-05-07 14:40 | 30.14170 | -11.95662 | 31716 ft | 485 kts | 40° |
| 2026-05-07 14:40 | 30.16608 | -11.92964 | 31939 ft | 486 kts | 40° |
| 2026-05-07 14:40 | 30.19043 | -11.90249 | 32247 ft | 486 kts | 40° |
| 2026-05-07 14:41 | 30.21462 | -11.87539 | 32624 ft | 483 kts | 40° |
| 2026-05-07 14:41 | 30.23871 | -11.84833 | 32979 ft | 482 kts | 40° |
| 2026-05-07 14:41 | 30.26268 | -11.82135 | 33276 ft | 481 kts | 40° |
| 2026-05-07 14:41 | 30.28669 | -11.79432 | 33537 ft | 481 kts | 40° |
| 2026-05-07 14:42 | 30.31068 | -11.76731 | 33819 ft | 481 kts | 40° |
| 2026-05-07 14:42 | 30.33465 | -11.74029 | 34009 ft | 482 kts | 39° |
| 2026-05-07 14:42 | 30.38299 | -11.68582 | 33987 ft | 485 kts | 40° |
| 2026-05-07 14:43 | 30.43107 | -11.63150 | 33976 ft | 479 kts | 40° |
| 2026-05-07 14:43 | 30.47874 | -11.57758 | 33991 ft | 479 kts | 40° |
| 2026-05-07 14:44 | 30.52640 | -11.52363 | 33990 ft | 479 kts | 40° |
| 2026-05-07 14:44 | 30.57406 | -11.46958 | 33989 ft | 479 kts | 40° |
| 2026-05-07 14:45 | 30.62174 | -11.41545 | 33987 ft | 480 kts | 40° |
| 2026-05-07 14:45 | 30.66942 | -11.36122 | 33987 ft | 480 kts | 40° |
| 2026-05-07 14:46 | 30.71714 | -11.30686 | 33981 ft | 481 kts | 40° |
| 2026-05-07 14:46 | 30.76488 | -11.25241 | 34007 ft | 481 kts | 40° |
| 2026-05-07 14:47 | 30.81267 | -11.19781 | 33995 ft | 482 kts | 40° |
| 2026-05-07 14:47 | 30.86055 | -11.14304 | 33984 ft | 483 kts | 40° |
| 2026-05-07 14:48 | 30.90844 | -11.08817 | 33983 ft | 483 kts | 40° |
| 2026-05-07 14:48 | 30.95635 | -11.03319 | 33983 ft | 484 kts | 40° |
| 2026-05-07 14:49 | 31.00425 | -10.97814 | 33980 ft | 484 kts | 40° |
| 2026-05-07 14:49 | 31.05218 | -10.92298 | 33984 ft | 484 kts | 40° |
| 2026-05-07 14:50 | 31.10009 | -10.86776 | 33989 ft | 485 kts | 40° |
| 2026-05-07 14:50 | 31.14805 | -10.81240 | 33987 ft | 485 kts | 40° |
| 2026-05-07 14:51 | 31.19601 | -10.75695 | 33972 ft | 485 kts | 40° |
| 2026-05-07 14:51 | 31.24393 | -10.70147 | 33978 ft | 485 kts | 40° |
| 2026-05-07 14:52 | 31.29181 | -10.64594 | 33970 ft | 485 kts | 40° |
| 2026-05-07 14:52 | 31.33968 | -10.59035 | 33977 ft | 485 kts | 40° |
| 2026-05-07 14:53 | 31.38748 | -10.53475 | 33974 ft | 485 kts | 40° |
| 2026-05-07 14:53 | 31.43526 | -10.47910 | 33974 ft | 484 kts | 41° |
| 2026-05-07 14:54 | 31.48263 | -10.42383 | 33963 ft | 484 kts | 41° |
| 2026-05-07 14:54 | 31.53024 | -10.36821 | 33967 ft | 483 kts | 41° |
| 2026-05-07 14:55 | 31.57779 | -10.31257 | 33970 ft | 483 kts | 41° |
| 2026-05-07 14:55 | 31.62527 | -10.25692 | 33964 ft | 482 kts | 41° |
| 2026-05-07 14:56 | 31.67269 | -10.20126 | 33985 ft | 482 kts | 41° |
| 2026-05-07 14:56 | 31.72008 | -10.14555 | 33971 ft | 482 kts | 41° |
| 2026-05-07 14:57 | 31.76745 | -10.08978 | 33962 ft | 482 kts | 41° |
| 2026-05-07 14:57 | 31.81469 | -10.03406 | 33966 ft | 481 kts | 41° |
| 2026-05-07 14:58 | 31.86187 | -9.97834 | 33958 ft | 480 kts | 41° |
| 2026-05-07 14:58 | 31.90895 | -9.92266 | 33960 ft | 480 kts | 41° |
| 2026-05-07 14:59 | 31.95594 | -9.86698 | 33961 ft | 479 kts | 41° |
| 2026-05-07 14:59 | 32.00293 | -9.81124 | 33957 ft | 479 kts | 41° |
| 2026-05-07 15:00 | 32.04985 | -9.75550 | 33956 ft | 479 kts | 41° |
| 2026-05-07 15:00 | 32.09671 | -9.69972 | 33958 ft | 478 kts | 41° |
| 2026-05-07 15:01 | 32.14350 | -9.64394 | 33954 ft | 478 kts | 41° |
| 2026-05-07 15:01 | 32.19026 | -9.58812 | 33953 ft | 478 kts | 41° |
| 2026-05-07 15:02 | 32.23699 | -9.53225 | 33947 ft | 478 kts | 41° |
| 2026-05-07 15:02 | 32.28369 | -9.47633 | 33959 ft | 478 kts | 41° |
| 2026-05-07 15:03 | 32.33039 | -9.42031 | 33955 ft | 478 kts | 41° |
| 2026-05-07 15:03 | 32.37711 | -9.36419 | 33945 ft | 479 kts | 41° |
| 2026-05-07 15:04 | 32.42345 | -9.30843 | 33947 ft | 479 kts | 41° |
| 2026-05-07 15:04 | 32.47013 | -9.25218 | 33949 ft | 479 kts | 41° |
| 2026-05-07 15:05 | 32.51680 | -9.19585 | 33950 ft | 479 kts | 41° |
| 2026-05-07 15:05 | 32.56346 | -9.13944 | 33976 ft | 480 kts | 41° |
| 2026-05-07 15:06 | 32.61023 | -9.08283 | 33944 ft | 480 kts | 41° |
| 2026-05-07 15:06 | 32.65693 | -9.02618 | 33952 ft | 480 kts | 41° |
| 2026-05-07 15:07 | 32.70358 | -8.96952 | 33949 ft | 480 kts | 41° |
| 2026-05-07 15:07 | 32.75016 | -8.91285 | 33950 ft | 479 kts | 41° |
| 2026-05-07 15:08 | 32.79659 | -8.85627 | 33951 ft | 478 kts | 41° |
| 2026-05-07 15:08 | 32.84289 | -8.79976 | 33956 ft | 477 kts | 41° |
| 2026-05-07 15:09 | 32.88911 | -8.74326 | 33954 ft | 476 kts | 41° |
| 2026-05-07 15:09 | 32.93529 | -8.68672 | 33953 ft | 476 kts | 41° |
| 2026-05-07 15:10 | 32.98146 | -8.63011 | 33947 ft | 476 kts | 41° |
| 2026-05-07 15:10 | 33.02762 | -8.57341 | 33949 ft | 477 kts | 41° |
| 2026-05-07 15:11 | 33.07376 | -8.51664 | 33949 ft | 477 kts | 41° |
| 2026-05-07 15:11 | 33.11997 | -8.45968 | 33945 ft | 478 kts | 41° |
| 2026-05-07 15:12 | 33.16618 | -8.40265 | 33944 ft | 478 kts | 41° |
| 2026-05-07 15:12 | 33.21492 | -8.35018 | 33933 ft | 470 kts | 28° |
| 2026-05-07 15:13 | 33.27057 | -8.30856 | 33944 ft | 468 kts | 26° |
| 2026-05-07 15:13 | 33.32577 | -8.26809 | 33947 ft | 469 kts | 26° |
| 2026-05-07 15:14 | 33.38121 | -8.22679 | 33945 ft | 470 kts | 27° |
| 2026-05-07 15:14 | 33.43649 | -8.18511 | 33955 ft | 470 kts | 27° |
| 2026-05-07 15:15 | 33.49177 | -8.14324 | 33945 ft | 470 kts | 27° |
| 2026-05-07 15:15 | 33.54702 | -8.10133 | 33953 ft | 470 kts | 27° |
| 2026-05-07 15:16 | 33.60227 | -8.05937 | 33951 ft | 470 kts | 27° |
| 2026-05-07 15:16 | 33.65752 | -8.01736 | 33947 ft | 470 kts | 27° |
| 2026-05-07 15:17 | 33.71272 | -7.97533 | 33968 ft | 470 kts | 27° |
| 2026-05-07 15:17 | 33.76797 | -7.93320 | 33961 ft | 470 kts | 27° |
| 2026-05-07 15:18 | 33.82324 | -7.89098 | 33953 ft | 471 kts | 27° |
| 2026-05-07 15:18 | 33.87851 | -7.84869 | 33960 ft | 471 kts | 27° |
| 2026-05-07 15:19 | 33.93374 | -7.80637 | 33958 ft | 471 kts | 27° |
| 2026-05-07 15:19 | 33.98898 | -7.76398 | 33971 ft | 471 kts | 27° |
| 2026-05-07 15:20 | 34.04426 | -7.72149 | 33964 ft | 471 kts | 27° |
| 2026-05-07 15:20 | 34.09956 | -7.67892 | 33963 ft | 472 kts | 27° |
| 2026-05-07 15:21 | 34.15484 | -7.63629 | 33961 ft | 472 kts | 27° |
| 2026-05-07 15:21 | 34.20976 | -7.59388 | 33962 ft | 472 kts | 27° |
| 2026-05-07 15:22 | 34.26504 | -7.55112 | 33967 ft | 472 kts | 27° |
| 2026-05-07 15:22 | 34.31139 | -7.51522 | 33968 ft | 472 kts | 27° |
| 2026-05-07 15:23 | 34.36634 | -7.47260 | 33960 ft | 472 kts | 27° |
| 2026-05-07 15:23 | 34.42161 | -7.42965 | 33959 ft | 472 kts | 27° |
| 2026-05-07 15:24 | 34.47682 | -7.38668 | 33959 ft | 472 kts | 27° |
| 2026-05-07 15:24 | 34.53201 | -7.34366 | 33972 ft | 472 kts | 27° |
| 2026-05-07 15:25 | 34.58718 | -7.30060 | 33965 ft | 472 kts | 27° |
| 2026-05-07 15:25 | 34.64232 | -7.25748 | 33961 ft | 471 kts | 27° |
| 2026-05-07 15:26 | 34.69745 | -7.21430 | 33959 ft | 471 kts | 27° |
| 2026-05-07 15:26 | 34.75251 | -7.17111 | 33958 ft | 471 kts | 27° |
| 2026-05-07 15:27 | 34.80752 | -7.12788 | 33970 ft | 471 kts | 27° |
| 2026-05-07 15:27 | 34.86255 | -7.08457 | 33960 ft | 471 kts | 27° |
| 2026-05-07 15:28 | 34.91754 | -7.04123 | 33957 ft | 471 kts | 27° |
| 2026-05-07 15:28 | 34.97250 | -6.99783 | 33954 ft | 471 kts | 27° |
| 2026-05-07 15:29 | 35.02741 | -6.95440 | 33956 ft | 470 kts | 27° |
| 2026-05-07 15:29 | 35.08232 | -6.91091 | 33965 ft | 471 kts | 27° |
| 2026-05-07 15:30 | 35.13726 | -6.86732 | 33952 ft | 471 kts | 27° |
| 2026-05-07 15:30 | 35.19222 | -6.82363 | 33950 ft | 471 kts | 26° |
| 2026-05-07 15:31 | 35.24681 | -6.78017 | 33951 ft | 472 kts | 26° |
| 2026-05-07 15:31 | 35.30182 | -6.73631 | 33955 ft | 472 kts | 26° |
| 2026-05-07 15:32 | 35.35249 | -6.68300 | 33961 ft | 486 kts | 45° |